createdAt,value
2023-04-20T00:01:05.952Z,99206.66
2023-04-20T00:03:35.610Z,99208.19
2023-04-20T00:06:04.346Z,99202.37
2023-04-20T00:08:32.470Z,99194.13
2023-04-20T00:11:00.808Z,99190.48
2023-04-20T00:13:29.087Z,99190.54
2023-04-20T00:15:57.348Z,99186.73
2023-04-20T00:18:25.858Z,99183.02
2023-04-20T00:20:54.042Z,99177.48
2023-04-20T00:23:22.515Z,99173.67
2023-04-20T00:25:51.862Z,99171.23
2023-04-20T00:28:20.615Z,99178.70
2023-04-20T00:30:49.028Z,99180.23
2023-04-20T00:33:17.271Z,99180.91
2023-04-20T00:35:45.554Z,99185.70
2023-04-20T00:38:13.833Z,99184.59
2023-04-20T00:40:44.897Z,99179.86
2023-04-20T00:43:13.907Z,99176.05
2023-04-20T00:45:42.710Z,99175.63
2023-04-20T00:48:11.425Z,99177.90
2023-04-20T00:50:40.370Z,99180.58
2023-04-20T00:53:08.737Z,99180.18
2023-04-20T00:55:37.657Z,99179.89
2023-04-20T00:58:06.675Z,99172.34
2023-04-20T01:00:35.221Z,99165.15
2023-04-20T01:03:03.457Z,99171.52
2023-04-20T01:05:32.387Z,99169.89
2023-04-20T01:08:00.880Z,99160.77
2023-04-20T01:10:31.273Z,99166.36
2023-04-20T01:13:00.326Z,99168.48
2023-04-20T01:15:28.942Z,99164.08
2023-04-20T01:17:58.188Z,99162.83
2023-04-20T01:20:26.454Z,99158.24
2023-04-20T01:22:55.200Z,99138.30
2023-04-20T01:25:23.548Z,99133.11
2023-04-20T01:27:51.832Z,99124.59
2023-04-20T01:30:19.903Z,99117.34
2023-04-20T01:32:48.936Z,99115.31
2023-04-20T01:35:17.396Z,99109.55
2023-04-20T01:37:46.509Z,99108.03
2023-04-20T01:40:14.727Z,99113.00
2023-04-20T01:42:43.175Z,99109.17
2023-04-20T01:45:11.640Z,99104.63
2023-04-20T01:47:39.971Z,99098.54
2023-04-20T01:50:09.008Z,99098.42
2023-04-20T01:52:37.505Z,99096.16
2023-04-20T01:55:06.400Z,99095.98
2023-04-20T01:57:34.729Z,99104.33
2023-04-20T02:00:04.496Z,99105.58
2023-04-20T02:02:42.845Z,99106.48
2023-04-20T02:05:11.301Z,99105.40
2023-04-20T02:07:39.785Z,99096.88
2023-04-20T02:10:08.693Z,99101.86
2023-04-20T02:12:36.964Z,99120.80
2023-04-20T02:15:07.320Z,99131.43
2023-04-20T02:17:37.173Z,99127.38
2023-04-20T02:20:07.395Z,99117.38
2023-04-20T02:22:36.660Z,99112.65
2023-04-20T02:25:05.574Z,99095.55
2023-04-20T02:27:33.903Z,99090.89
2023-04-20T02:30:02.115Z,99083.36
2023-04-20T02:32:30.714Z,99081.55
2023-04-20T02:34:58.964Z,99076.46
2023-04-20T02:37:27.472Z,99061.15
2023-04-20T02:39:55.823Z,99046.17
2023-04-20T02:42:27.169Z,99046.38
2023-04-20T02:44:56.571Z,99056.71
2023-04-20T02:47:24.830Z,99056.77
2023-04-20T02:49:54.000Z,99055.09
2023-04-20T02:52:22.548Z,99064.30
2023-04-20T02:54:50.836Z,99065.98
2023-04-20T02:57:19.218Z,99076.82
2023-04-20T02:59:47.898Z,99079.23
2023-04-20T03:02:24.931Z,99079.45
2023-04-20T03:04:54.158Z,99078.30
2023-04-20T03:07:22.763Z,99074.20
2023-04-20T03:09:51.184Z,99073.30
2023-04-20T03:12:20.086Z,99076.40
2023-04-20T03:15:18.880Z,99071.99
2023-04-20T03:18:06.451Z,99069.31
2023-04-20T03:20:35.854Z,99062.20
2023-04-20T03:23:04.126Z,99058.07
2023-04-20T03:25:32.620Z,99055.39
2023-04-20T03:28:03.634Z,99054.05
2023-04-20T03:30:32.372Z,99052.27
2023-04-20T03:33:14.758Z,99052.67
2023-04-20T03:35:43.368Z,99057.11
2023-04-20T03:38:11.701Z,99061.96
2023-04-20T03:40:39.925Z,99065.15
2023-04-20T03:43:08.185Z,99063.92
2023-04-20T03:45:36.694Z,99069.70
2023-04-20T03:48:06.047Z,99069.20
2023-04-20T03:50:34.703Z,99073.62
2023-04-20T03:53:02.870Z,99076.30
2023-04-20T03:55:31.429Z,99076.20
2023-04-20T03:58:03.706Z,99075.20
2023-04-20T04:00:39.042Z,99069.79
2023-04-20T04:03:08.332Z,99072.23
2023-04-20T04:05:37.147Z,99073.74
2023-04-20T04:08:05.728Z,99076.82
2023-04-20T04:10:34.163Z,99076.21
2023-04-20T04:13:02.484Z,99076.05
2023-04-20T04:15:32.603Z,99078.06
2023-04-20T04:18:04.716Z,99079.05
2023-04-20T04:20:33.254Z,99079.46
2023-04-20T04:23:02.486Z,99077.55
2023-04-20T04:25:38.882Z,99076.27
2023-04-20T04:28:07.535Z,99077.16
2023-04-20T04:30:37.407Z,99074.17
2023-04-20T04:33:07.816Z,99075.73
2023-04-20T04:35:37.208Z,99075.54
2023-04-20T04:38:06.297Z,99074.06
2023-04-20T04:40:35.077Z,99074.45
2023-04-20T04:43:04.178Z,99076.30
2023-04-20T04:45:32.863Z,99071.08
2023-04-20T04:48:01.104Z,99072.48
2023-04-20T04:50:30.686Z,99069.75
2023-04-20T04:52:58.845Z,99070.56
2023-04-20T04:55:27.201Z,99067.55
2023-04-20T04:57:55.704Z,99065.38
2023-04-20T05:00:25.427Z,99063.50
2023-04-20T05:02:54.100Z,99062.77
2023-04-20T05:05:22.704Z,99064.55
2023-04-20T05:07:51.284Z,99069.09
2023-04-20T05:10:20.588Z,99075.14
2023-04-20T05:12:48.993Z,99076.57
2023-04-20T05:15:18.284Z,99075.77
2023-04-20T05:17:46.582Z,99077.59
2023-04-20T05:20:15.053Z,99076.20
2023-04-20T05:22:43.233Z,99077.17
2023-04-20T05:25:13.786Z,99074.80
2023-04-20T05:27:42.252Z,99074.96
2023-04-20T05:30:20.187Z,99073.98
2023-04-20T05:32:52.263Z,99073.69
2023-04-20T05:35:21.590Z,99074.55
2023-04-20T05:37:50.355Z,99072.84
2023-04-20T05:40:18.808Z,99077.30
2023-04-20T05:42:47.085Z,99082.81
2023-04-20T05:45:15.603Z,99081.21
2023-04-20T05:47:58.674Z,99080.54
2023-04-20T05:50:27.793Z,99085.49
2023-04-20T05:52:56.076Z,99087.74
2023-04-20T05:55:24.477Z,99086.71
2023-04-20T05:57:52.755Z,99090.52
2023-04-20T06:00:22.074Z,99089.98
2023-04-20T06:02:52.318Z,99091.02
2023-04-20T06:05:21.549Z,99089.91
2023-04-20T06:07:50.182Z,99088.85
2023-04-20T06:10:22.199Z,99091.61
2023-04-20T06:12:51.049Z,99095.34
2023-04-20T06:15:19.404Z,99092.11
2023-04-20T06:17:47.915Z,99092.33
2023-04-20T06:20:16.996Z,99096.29
2023-04-20T06:22:45.593Z,99095.11
2023-04-20T06:25:14.036Z,99100.62
2023-04-20T06:27:44.760Z,99101.39
2023-04-20T06:30:13.712Z,99097.27
2023-04-20T06:32:42.002Z,99092.48
2023-04-20T06:35:10.755Z,99090.77
2023-04-20T06:37:40.361Z,99088.21
2023-04-20T06:40:09.016Z,99086.02
2023-04-20T06:42:37.679Z,99088.86
2023-04-20T06:45:07.185Z,99086.09
2023-04-20T06:47:35.624Z,99086.13
2023-04-20T06:50:07.444Z,99084.71
2023-04-20T06:52:37.723Z,99086.30
2023-04-20T06:55:06.265Z,99088.08
2023-04-20T06:57:38.632Z,99084.19
2023-04-20T07:00:08.730Z,99084.86
2023-04-20T07:02:49.627Z,99080.98
2023-04-20T07:05:18.432Z,99083.16
2023-04-20T07:07:47.442Z,99080.28
2023-04-20T07:10:19.458Z,99077.89
2023-04-20T07:12:48.502Z,99075.85
2023-04-20T07:15:37.726Z,99072.90
2023-04-20T07:18:06.729Z,99072.27
2023-04-20T07:20:37.350Z,99069.28
2023-04-20T07:23:14.940Z,99064.64
2023-04-20T07:25:43.841Z,99067.34
2023-04-20T07:28:12.132Z,99062.27
2023-04-20T07:30:40.310Z,99061.35
2023-04-20T07:33:09.357Z,99055.88
2023-04-20T07:35:37.857Z,99055.44
2023-04-20T07:38:06.199Z,99053.59
2023-04-20T07:40:34.453Z,99050.87
2023-04-20T07:43:02.733Z,99050.36
2023-04-20T07:45:40.200Z,99047.98
2023-04-20T07:48:13.593Z,99045.61
2023-04-20T07:50:42.280Z,99047.05
2023-04-20T07:53:10.433Z,99043.56
2023-04-20T07:55:38.601Z,99045.83
2023-04-20T07:58:07.172Z,99049.92
2023-04-20T08:00:35.639Z,99059.50
2023-04-20T08:03:04.291Z,99057.61
2023-04-20T08:05:33.132Z,99055.05
2023-04-20T08:08:01.837Z,99056.33
2023-04-20T08:10:30.611Z,99056.21
2023-04-20T08:12:59.363Z,99057.27
2023-04-20T08:15:27.772Z,99054.16
2023-04-20T08:17:56.802Z,99056.63
2023-04-20T08:20:25.503Z,99057.34
2023-04-20T08:22:54.183Z,99055.34
2023-04-20T08:25:23.788Z,99057.14
2023-04-20T08:27:53.353Z,99059.23
2023-04-20T08:30:24.112Z,99059.73
2023-04-20T08:32:53.178Z,99065.98
2023-04-20T08:35:21.907Z,99068.36
2023-04-20T08:37:50.185Z,99074.89
2023-04-20T08:40:20.206Z,99069.99
2023-04-20T08:42:48.436Z,99070.30
2023-04-20T08:45:16.624Z,99071.28
2023-04-20T08:47:44.985Z,99068.65
2023-04-20T08:50:13.326Z,99075.90
2023-04-20T08:52:42.031Z,99080.02
2023-04-20T08:55:10.815Z,99081.36
2023-04-20T08:57:38.992Z,99088.33
2023-04-20T09:00:13.398Z,99090.63
2023-04-20T09:02:52.720Z,99090.73
2023-04-20T09:05:28.704Z,99092.67
2023-04-20T09:07:59.026Z,99101.55
2023-04-20T09:10:27.700Z,99104.21
2023-04-20T09:12:56.108Z,99100.45
2023-04-20T09:15:28.413Z,99104.89
2023-04-20T09:17:57.553Z,99109.34
2023-04-20T09:20:34.425Z,99111.92
2023-04-20T09:23:20.262Z,99111.58
2023-04-20T09:25:53.372Z,99117.77
2023-04-20T09:28:22.337Z,99117.36
2023-04-20T09:30:51.806Z,99114.36
2023-04-20T09:33:20.448Z,99114.59
2023-04-20T09:35:48.786Z,99115.17
2023-04-20T09:38:18.216Z,99113.64
2023-04-20T09:40:46.421Z,99109.52
2023-04-20T09:43:21.393Z,99106.20
2023-04-20T09:45:50.676Z,99098.84
2023-04-20T09:48:21.993Z,99099.58
2023-04-20T09:50:51.468Z,99093.35
2023-04-20T09:53:20.794Z,99085.35
2023-04-20T09:55:50.085Z,99078.21
2023-04-20T09:58:19.946Z,99078.04
2023-04-20T10:00:48.193Z,99069.93
2023-04-20T10:03:18.766Z,99072.80
2023-04-20T10:05:47.270Z,99074.74
2023-04-20T10:08:15.601Z,99076.20
2023-04-20T10:10:49.022Z,99080.76
2023-04-20T10:13:19.848Z,99085.29
2023-04-20T10:15:48.425Z,99086.75
2023-04-20T10:18:24.690Z,99089.02
2023-04-20T10:21:03.936Z,99083.88
2023-04-20T10:23:32.335Z,99077.27
2023-04-20T10:26:01.949Z,99077.38
2023-04-20T10:28:40.409Z,99083.86
2023-04-20T10:31:09.069Z,99083.86
2023-04-20T10:33:37.506Z,99084.66
2023-04-20T10:36:06.443Z,99091.91
2023-04-20T10:38:36.081Z,99093.92
2023-04-20T10:41:08.059Z,99098.10
2023-04-20T10:43:39.222Z,99098.10
2023-04-20T10:46:26.493Z,99102.14
2023-04-20T10:48:58.231Z,99103.19
2023-04-20T10:51:26.610Z,99103.89
2023-04-20T10:53:59.382Z,99107.95
2023-04-20T10:56:57.377Z,99107.61
2023-04-20T10:59:26.046Z,99112.65
2023-04-20T11:01:55.835Z,99114.98
2023-04-20T11:04:32.569Z,99114.94
2023-04-20T11:07:14.947Z,99115.20
2023-04-20T11:09:43.708Z,99118.48
2023-04-20T11:12:14.896Z,99116.10
2023-04-20T11:14:54.623Z,99116.39
2023-04-20T11:17:39.595Z,99116.02
2023-04-20T11:20:15.158Z,99114.19
2023-04-20T11:22:43.920Z,99115.52
2023-04-20T11:25:12.496Z,99113.98
2023-04-20T11:27:42.306Z,99109.08
2023-04-20T11:30:10.741Z,99112.44
2023-04-20T11:32:40.002Z,99115.39
2023-04-20T11:35:11.155Z,99113.38
2023-04-20T11:37:51.473Z,99116.85
2023-04-20T11:40:20.467Z,99117.13
2023-04-20T11:42:48.692Z,99112.63
2023-04-20T11:45:18.080Z,99108.49
2023-04-20T11:47:47.372Z,99105.54
2023-04-20T11:50:15.810Z,99104.38
2023-04-20T11:52:44.180Z,99099.02
2023-04-20T11:55:12.672Z,99094.98
2023-04-20T11:57:40.964Z,99088.99
2023-04-20T12:00:10.092Z,99085.27
2023-04-20T12:02:44.388Z,99086.39
2023-04-20T12:05:12.859Z,99081.36
2023-04-20T12:07:42.167Z,99077.88
2023-04-20T12:10:10.852Z,99079.30
2023-04-20T12:12:42.299Z,99077.99
2023-04-20T12:15:11.090Z,99074.02
2023-04-20T12:17:39.504Z,99070.59
2023-04-20T12:20:09.547Z,99066.80
2023-04-20T12:22:38.397Z,99064.15
2023-04-20T12:25:08.419Z,99056.92
2023-04-20T12:27:37.629Z,99059.33
2023-04-20T12:30:07.140Z,99052.14
2023-04-20T12:32:35.890Z,99050.05
2023-04-20T12:35:04.559Z,99053.96
2023-04-20T12:37:33.052Z,99051.75
2023-04-20T12:40:01.183Z,99052.88
2023-04-20T12:42:41.031Z,99050.98
2023-04-20T12:45:11.272Z,99050.60
2023-04-20T12:47:40.891Z,99046.23
2023-04-20T12:50:09.374Z,99052.30
2023-04-20T12:52:37.798Z,99051.42
2023-04-20T12:55:07.787Z,99053.14
2023-04-20T12:57:36.416Z,99051.41
2023-04-20T13:00:06.425Z,99050.82
2023-04-20T13:02:35.085Z,99049.38
2023-04-20T13:05:04.300Z,99055.31
2023-04-20T13:07:32.652Z,99056.40
2023-04-20T13:10:00.936Z,99055.11
2023-04-20T13:12:29.626Z,99054.55
2023-04-20T13:15:00.588Z,99052.45
2023-04-20T13:17:29.184Z,99051.61
2023-04-20T13:19:57.493Z,99050.57
2023-04-20T13:22:25.816Z,99050.65
2023-04-20T13:24:54.121Z,99043.98
2023-04-20T13:27:22.281Z,99045.63
2023-04-20T13:29:50.593Z,99044.09
2023-04-20T13:32:18.959Z,99045.41
2023-04-20T13:34:47.382Z,99042.50
2023-04-20T13:37:15.602Z,99042.03
2023-04-20T13:39:45.011Z,99036.89
2023-04-20T13:42:13.198Z,99038.76
2023-04-20T13:44:41.627Z,99042.08
2023-04-20T13:47:09.915Z,99036.45
2023-04-20T13:49:38.570Z,99040.45
2023-04-20T13:52:07.152Z,99035.06
2023-04-20T13:54:35.522Z,99032.07
2023-04-20T13:57:03.766Z,99029.48
2023-04-20T13:59:32.079Z,99029.23
2023-04-20T14:02:00.817Z,99025.32
2023-04-20T14:04:29.484Z,99028.09
2023-04-20T14:06:57.958Z,99031.52
2023-04-20T14:09:26.228Z,99039.11
2023-04-20T14:11:56.954Z,99037.76
2023-04-20T14:14:25.667Z,99040.66
2023-04-20T14:16:53.880Z,99037.12
2023-04-20T14:19:22.223Z,99035.94
2023-04-20T14:21:50.912Z,99033.58
2023-04-20T14:24:19.375Z,99034.89
2023-04-20T14:26:47.887Z,99031.52
2023-04-20T14:29:16.218Z,99034.36
2023-04-20T14:31:44.671Z,99036.72
2023-04-20T14:34:13.452Z,99037.55
2023-04-20T14:36:41.625Z,99036.79
2023-04-20T14:39:10.049Z,99039.55
2023-04-20T14:41:38.390Z,99036.52
2023-04-20T14:44:06.671Z,99039.29
2023-04-20T14:46:35.822Z,99045.92
2023-04-20T14:49:04.065Z,99044.91
2023-04-20T14:51:32.636Z,99039.89
2023-04-20T14:54:00.868Z,99043.63
2023-04-20T14:56:29.202Z,99044.01
2023-04-20T14:58:59.609Z,99046.64
2023-04-20T15:01:28.176Z,99048.02
2023-04-20T15:03:56.683Z,99046.55
2023-04-20T15:06:25.000Z,99046.65
2023-04-20T15:08:55.340Z,99048.66
2023-04-20T15:11:23.584Z,99053.05
2023-04-20T15:13:53.204Z,99053.98
2023-04-20T15:16:21.838Z,99060.09
2023-04-20T15:18:52.215Z,99059.63
2023-04-20T15:21:22.276Z,99066.18
2023-04-20T15:23:50.484Z,99069.37
2023-04-20T15:26:18.664Z,99073.05
2023-04-20T15:28:47.088Z,99076.17
2023-04-20T15:31:17.275Z,99075.77
2023-04-20T15:33:48.140Z,99072.63
2023-04-20T15:36:20.137Z,99074.15
2023-04-20T15:38:48.490Z,99077.16
2023-04-20T15:41:16.775Z,99078.42
2023-04-20T15:43:45.062Z,99076.18
2023-04-20T15:46:13.276Z,99074.40
2023-04-20T15:48:41.485Z,99072.02
2023-04-20T15:51:09.801Z,99068.25
2023-04-20T15:53:38.400Z,99069.72
2023-04-20T15:56:06.876Z,99072.38
2023-04-20T15:58:35.760Z,99072.45
2023-04-20T16:01:04.249Z,99069.77
2023-04-20T16:03:32.516Z,99068.73
2023-04-20T16:06:01.026Z,99067.07
2023-04-20T16:08:29.397Z,99066.63
2023-04-20T16:10:57.496Z,99067.13
2023-04-20T16:13:27.086Z,99066.81
2023-04-20T16:15:55.747Z,99065.62
2023-04-20T16:18:24.628Z,99064.59
2023-04-20T16:20:52.932Z,99064.66
2023-04-20T16:23:21.479Z,99062.27
2023-04-20T16:25:49.648Z,99065.09
2023-04-20T16:28:18.302Z,99067.08
2023-04-20T16:30:46.584Z,99072.50
2023-04-20T16:33:15.708Z,99071.75
2023-04-20T16:35:43.781Z,99067.05
2023-04-20T16:38:12.043Z,99065.90
2023-04-20T16:40:40.380Z,99066.59
2023-04-20T16:43:08.603Z,99065.82
2023-04-20T16:45:39.171Z,99066.83
2023-04-20T16:48:08.344Z,99061.30
2023-04-20T16:50:38.092Z,99064.02
2023-04-20T16:53:08.689Z,99062.73
2023-04-20T16:55:36.875Z,99063.16
2023-04-20T16:58:05.867Z,99067.45
2023-04-20T17:00:34.854Z,99071.63
2023-04-20T17:03:06.295Z,99074.92
2023-04-20T17:05:40.218Z,99074.94
2023-04-20T17:08:10.160Z,99081.03
2023-04-20T17:10:39.407Z,99087.63
2023-04-20T17:13:07.554Z,99087.00
2023-04-20T17:15:36.048Z,99085.24
2023-04-20T17:18:04.781Z,99089.38
2023-04-20T17:20:33.574Z,99090.45
2023-04-20T17:23:02.181Z,99093.45
2023-04-20T17:25:30.467Z,99092.38
2023-04-20T17:27:58.641Z,99093.80
2023-04-20T17:30:27.235Z,99096.87
2023-04-20T17:32:57.298Z,99091.98
2023-04-20T17:35:25.843Z,99087.00
2023-04-20T17:37:54.201Z,99085.16
2023-04-20T17:40:22.501Z,99084.17
2023-04-20T17:42:50.643Z,99087.25
2023-04-20T17:45:19.382Z,99093.95
2023-04-20T17:47:48.070Z,99097.73
2023-04-20T17:50:16.748Z,99089.23
2023-04-20T17:52:44.928Z,99087.62
2023-04-20T17:55:13.098Z,99087.13
2023-04-20T17:57:41.281Z,99089.57
2023-04-20T18:00:11.865Z,99092.20
2023-04-20T18:02:41.098Z,99092.87
2023-04-20T18:05:11.342Z,99090.11
2023-04-20T18:07:39.540Z,99079.21
2023-04-20T18:10:08.918Z,99081.80
2023-04-20T18:12:37.117Z,99083.98
2023-04-20T18:15:08.212Z,99083.39
2023-04-20T18:17:37.099Z,99081.70
2023-04-20T18:20:06.100Z,99079.61
2023-04-20T18:22:37.909Z,99076.50
2023-04-20T18:25:06.606Z,99073.50
2023-04-20T18:27:34.900Z,99075.88
2023-04-20T18:30:03.775Z,99075.45
2023-04-20T18:32:33.173Z,99075.95
2023-04-20T18:35:01.875Z,99078.06
2023-04-20T18:37:30.258Z,99074.10
2023-04-20T18:39:58.782Z,99073.40
2023-04-20T18:42:27.267Z,99070.98
2023-04-20T18:44:56.224Z,99074.60
2023-04-20T18:47:25.758Z,99072.42
2023-04-20T18:49:53.915Z,99072.27
2023-04-20T18:52:22.621Z,99070.45
2023-04-20T18:54:52.004Z,99072.38
2023-04-20T18:57:24.179Z,99068.83
2023-04-20T18:59:53.181Z,99068.38
2023-04-20T19:02:21.901Z,99071.98
2023-04-20T19:04:51.097Z,99073.70
2023-04-20T19:07:19.322Z,99073.15
2023-04-20T19:09:47.532Z,99069.93
2023-04-20T19:12:15.952Z,99065.70
2023-04-20T19:14:44.548Z,99065.16
2023-04-20T19:17:13.740Z,99063.70
2023-04-20T19:19:41.874Z,99060.27
2023-04-20T19:22:10.260Z,99059.30
2023-04-20T19:24:38.572Z,99060.51
2023-04-20T19:27:06.724Z,99056.88
2023-04-20T19:29:36.368Z,99058.17
2023-04-20T19:32:04.835Z,99057.58
2023-04-20T19:34:33.204Z,99058.88
2023-04-20T19:37:01.275Z,99058.08
2023-04-20T19:39:29.497Z,99055.47
2023-04-20T19:41:57.834Z,99058.27
2023-04-20T19:44:25.911Z,99059.63
2023-04-20T19:46:54.088Z,99059.51
2023-04-20T19:49:22.309Z,99057.86
2023-04-20T19:51:50.554Z,99059.65
2023-04-20T19:54:19.165Z,99060.14
2023-04-20T19:56:47.229Z,99065.46
2023-04-20T19:59:15.498Z,99063.90
2023-04-20T20:01:44.011Z,99057.17
2023-04-20T20:04:12.554Z,99060.29
2023-04-20T20:06:41.172Z,99056.71
2023-04-20T20:09:10.987Z,99058.58
2023-04-20T20:11:39.351Z,99062.27
2023-04-20T20:14:07.883Z,99063.17
2023-04-20T20:16:40.163Z,99065.46
2023-04-20T20:19:09.108Z,99066.30
2023-04-20T20:21:37.617Z,99059.74
2023-04-20T20:24:05.992Z,99061.30
2023-04-20T20:26:34.675Z,99057.32
2023-04-20T20:29:03.006Z,99051.30
2023-04-20T20:31:31.898Z,99051.63
2023-04-20T20:34:00.137Z,99048.76
2023-04-20T20:36:32.205Z,99048.53
2023-04-20T20:39:00.621Z,99050.27
2023-04-20T20:41:30.624Z,99048.10
2023-04-20T20:43:59.897Z,99046.61
2023-04-20T20:46:28.316Z,99046.19
2023-04-20T20:48:57.019Z,99041.65
2023-04-20T20:51:26.681Z,99041.11
2023-04-20T20:53:54.970Z,99038.46
2023-04-20T20:56:23.245Z,99035.52
2023-04-20T20:58:51.635Z,99036.76
2023-04-20T21:01:20.015Z,99034.43
2023-04-20T21:03:50.282Z,99033.63
2023-04-20T21:06:18.560Z,99029.34
2023-04-20T21:08:46.800Z,99025.92
2023-04-20T21:11:14.978Z,99025.84
2023-04-20T21:13:43.257Z,99022.35
2023-04-20T21:16:11.584Z,99023.17
2023-04-20T21:18:40.035Z,99015.74
2023-04-20T21:21:12.674Z,99017.52
2023-04-20T21:23:40.897Z,99016.12
2023-04-20T21:26:09.269Z,99017.98
2023-04-20T21:28:37.557Z,99017.52
2023-04-20T21:31:05.836Z,99015.50
2023-04-20T21:33:35.934Z,99012.76
2023-04-20T21:36:04.446Z,99004.95
2023-04-20T21:38:34.173Z,99004.80
2023-04-20T21:41:02.937Z,99004.85
2023-04-20T21:43:31.538Z,99000.16
2023-04-20T21:45:59.836Z,98993.51
2023-04-20T21:48:28.201Z,98994.48
2023-04-20T21:50:56.486Z,98990.81
2023-04-20T21:53:24.864Z,98987.76
2023-04-20T21:55:53.152Z,98986.92
2023-04-20T21:58:21.986Z,98985.70
2023-04-20T22:00:51.240Z,98983.11
2023-04-20T22:03:19.812Z,98980.05
2023-04-20T22:05:48.212Z,98977.90
2023-04-20T22:08:16.495Z,98974.08
2023-04-20T22:10:45.257Z,98977.73
2023-04-20T22:13:13.511Z,98977.02
2023-04-20T22:15:41.979Z,98975.28
2023-04-20T22:18:11.367Z,98970.43
2023-04-20T22:20:39.944Z,98971.14
2023-04-20T22:23:08.224Z,98969.39
2023-04-20T22:25:36.713Z,98969.95
2023-04-20T22:28:04.895Z,98973.77
2023-04-20T22:30:33.191Z,98971.77
2023-04-20T22:33:01.638Z,98964.72
2023-04-20T22:35:30.541Z,98960.02
2023-04-20T22:37:59.552Z,98962.35
2023-04-20T22:40:28.248Z,98963.93
2023-04-20T22:42:56.524Z,98956.71
2023-04-20T22:45:24.566Z,98952.41
2023-04-20T22:47:52.711Z,98951.56
2023-04-20T22:50:21.084Z,98951.20
2023-04-20T22:52:50.528Z,98951.05
2023-04-20T22:55:18.641Z,98946.98
2023-04-20T22:57:46.877Z,98947.00
2023-04-20T23:00:15.725Z,98944.04
2023-04-20T23:02:44.055Z,98944.83
2023-04-20T23:05:12.416Z,98943.34
2023-04-20T23:07:40.656Z,98941.83
2023-04-20T23:10:09.899Z,98939.75
2023-04-20T23:12:38.558Z,98938.48
2023-04-20T23:15:07.325Z,98943.45
2023-04-20T23:17:36.705Z,98942.48
2023-04-20T23:20:10.409Z,98942.27
2023-04-20T23:22:38.729Z,98942.55
2023-04-20T23:25:07.751Z,98939.36
2023-04-20T23:27:36.828Z,98937.41
2023-04-20T23:30:06.673Z,98935.84
2023-04-20T23:32:35.770Z,98931.95
2023-04-20T23:35:04.649Z,98928.81
2023-04-20T23:37:33.607Z,98932.88
2023-04-20T23:40:01.935Z,98934.73
2023-04-20T23:42:30.556Z,98933.40
2023-04-20T23:44:59.004Z,98930.93
2023-04-20T23:47:27.197Z,98927.77
2023-04-20T23:49:55.652Z,98927.84
2023-04-20T23:52:23.945Z,98921.87
2023-04-20T23:54:52.214Z,98922.19
2023-04-20T23:57:20.262Z,98917.30
2023-04-20T23:59:48.475Z,98917.09
